Time;durP1;ratioP1;P1;durP2;ratioP2;P2;SDS_P1;SDS_P2;PMS_P1;PMS_P2;Temp;Humidity;BMP_temperature;BMP_pressure;BME280_temperature;BME280_humidity;BME280_pressure;Samples;Min_cycle;Max_cycle;Signal;HPM_P1;HPM_P2
2023/10/12 00:00:24;;;;;;;11.40;5.05;;;21.70;54.10;;;;;;5019055;28;20221;-29
2023/10/12 00:02:50;;;;;;;8.00;4.63;;;21.70;54.10;;;;;;5012409;28;20229;-29
2023/10/12 00:05:19;;;;;;;12.45;5.45;;;21.60;54.00;;;;;;5020858;28;20229;-29
2023/10/12 00:07:49;;;;;;;9.15;5.22;;;21.60;54.10;;;;;;5028661;28;20201;-29
2023/10/12 00:10:21;;;;;;;11.60;4.68;;;21.60;54.10;;;;;;5012781;28;20609;-30
2023/10/12 00:12:53;;;;;;;11.88;5.38;;;21.60;54.10;;;;;;5036403;28;20196;-29
2023/10/12 00:15:23;;;;;;;14.30;4.75;;;21.60;54.10;;;;;;5010280;28;20214;-29
2023/10/12 00:17:53;;;;;;;8.60;4.63;;;21.60;54.10;;;;;;5027769;28;20213;-29
2023/10/12 00:20:38;;;;;;;10.80;4.93;;;21.60;54.20;;;;;;5024974;28;20197;-29
2023/10/12 00:23:14;;;;;;;7.70;4.78;;;21.50;54.20;;;;;;5037446;28;20287;-29
2023/10/12 00:25:54;;;;;;;13.85;5.00;;;21.50;54.20;;;;;;5008790;28;20221;-29
2023/10/12 00:28:23;;;;;;;9.45;5.07;;;21.50;54.30;;;;;;5007284;28;20205;-29
2023/10/12 00:30:57;;;;;;;8.65;4.93;;;21.60;54.30;;;;;;5009791;28;20260;-29
2023/10/12 00:37:49;;;;;;;7.03;4.60;;;21.50;54.30;;;;;;5027218;28;20223;-29
2023/10/12 00:40:32;;;;;;;9.10;4.88;;;21.50;54.30;;;;;;5009950;28;20209;-29
2023/10/12 00:43:04;;;;;;;12.07;5.32;;;21.50;54.40;;;;;;5003922;28;20217;-29
2023/10/12 00:45:38;;;;;;;11.27;5.22;;;21.50;54.40;;;;;;5027464;28;20309;-29
2023/10/12 00:48:08;;;;;;;10.23;5.53;;;21.50;54.50;;;;;;5029218;28;20271;-29
2023/10/12 00:50:36;;;;;;;8.52;5.20;;;21.50;54.50;;;;;;5028673;28;20204;-29
2023/10/12 00:53:15;;;;;;;12.82;5.32;;;21.50;54.50;;;;;;5020352;28;20209;-29
2023/10/12 00:55:43;;;;;;;12.55;5.50;;;21.50;54.50;;;;;;5008952;28;20193;-29
2023/10/12 00:58:17;;;;;;;8.68;5.20;;;21.40;54.50;;;;;;5010690;28;20235;-29
2023/10/12 01:00:51;;;;;;;12.45;5.47;;;21.40;54.50;;;;;;5008185;28;20201;-29
2023/10/12 01:08:43;;;;;;;11.10;5.18;;;21.40;54.50;;;;;;5016858;28;20208;-29
2023/10/12 01:11:26;;;;;;;9.70;5.70;;;21.40;54.50;;;;;;5012857;28;20198;-30
2023/10/12 01:19:21;;;;;;;11.57;6.22;;;21.40;54.90;;;;;;5018657;28;20210;-29
2023/10/12 01:21:54;;;;;;;17.30;6.40;;;21.40;54.90;;;;;;5010662;28;20968;-29
2023/10/12 01:24:30;;;;;;;10.82;5.95;;;21.40;55.00;;;;;;5010577;28;20213;-29
2023/10/12 01:26:59;;;;;;;11.00;6.60;;;21.40;55.00;;;;;;5010430;28;20224;-29
2023/10/12 01:29:31;;;;;;;12.77;6.70;;;21.40;55.10;;;;;;5016626;28;20210;-29
2023/10/12 01:34:51;;;;;;;11.07;6.50;;;21.30;55.20;;;;;;5007552;28;20229;-29
2023/10/12 01:37:23;;;;;;;7.60;6.35;;;21.30;55.20;;;;;;5006871;28;20534;-29
2023/10/12 01:39:58;;;;;;;11.43;6.57;;;21.30;55.20;;;;;;5011813;28;20201;-29
2023/10/12 01:48:34;;;;;;;10.32;6.82;;;21.20;55.50;;;;;;5008518;28;20225;-28
2023/10/12 01:50:47;;;;;;;15.80;7.60;;;21.20;55.30;;;;;;5010199;28;20707;-29
2023/10/12 01:53:29;;;;;;;13.45;7.13;;;21.10;55.40;;;;;;5009786;28;20626;-29
2023/10/12 01:56:09;;;;;;;11.85;6.78;;;21.10;55.40;;;;;;5008463;28;20212;-29
2023/10/12 01:58:38;;;;;;;10.23;7.25;;;21.10;55.50;;;;;;5006620;28;20293;-29
2023/10/12 02:01:05;;;;;;;14.13;7.43;;;21.10;55.50;;;;;;5008869;28;20599;-29
2023/10/12 02:03:45;;;;;;;12.70;7.53;;;21.10;55.60;;;;;;5025372;28;20671;-29
2023/10/12 02:06:16;;;;;;;10.82;7.13;;;21.00;55.60;;;;;;5007012;28;20244;-29
2023/10/12 02:13:47;;;;;;;9.60;7.20;;;20.90;55.70;;;;;;5006462;28;20200;-29
2023/10/12 02:16:31;;;;;;;13.63;7.78;;;20.90;55.70;;;;;;5020173;28;20209;-29
2023/10/12 02:19:03;;;;;;;13.45;8.05;;;20.90;55.80;;;;;;5013485;28;20244;-29
2023/10/12 02:21:33;;;;;;;14.63;8.02;;;20.80;55.80;;;;;;5014404;28;20220;-29
2023/10/12 02:26:44;;;;;;;13.63;7.72;;;20.80;55.90;;;;;;5022450;28;20288;-29
2023/10/12 02:29:17;;;;;;;16.05;7.18;;;20.70;55.90;;;;;;5008048;28;20215;-30
2023/10/12 02:34:21;;;;;;;13.77;8.15;;;20.70;56.10;;;;;;5009151;28;20724;-31
2023/10/12 02:39:42;;;;;;;13.88;8.40;;;20.70;56.20;;;;;;5026187;28;20845;-31
2023/10/12 02:45:23;;;;;;;9.73;7.47;;;20.60;56.30;;;;;;5005912;28;20770;-31
2023/10/12 02:47:34;;;;;;;11.95;8.13;;;20.60;56.30;;;;;;5027343;28;20793;-30
2023/10/12 02:52:32;;;;;;;19.70;7.93;;;20.50;56.40;;;;;;5024329;28;20215;-31
2023/10/12 02:58:06;;;;;;;11.60;8.10;;;20.50;56.50;;;;;;5030675;28;20686;-31
2023/10/12 03:05:48;;;;;;;14.02;8.50;;;20.40;56.70;;;;;;5009064;28;20213;-31
2023/10/12 03:08:17;;;;;;;13.35;7.68;;;20.40;56.70;;;;;;5009481;28;20210;-31
2023/10/12 03:11:11;;;;;;;13.90;9.07;;;20.30;56.70;;;;;;5008659;28;20206;-31
2023/10/12 03:13:54;;;;;;;15.02;8.68;;;20.30;56.70;;;;;;5008120;28;20642;-31
2023/10/12 03:16:22;;;;;;;16.90;9.05;;;20.30;56.90;;;;;;5012881;28;20207;-31
2023/10/12 03:18:57;;;;;;;15.00;8.40;;;20.30;56.90;;;;;;5010423;28;20201;-31
2023/10/12 03:21:27;;;;;;;13.35;7.88;;;20.30;57.00;;;;;;5028701;28;20199;-31
2023/10/12 03:23:57;;;;;;;14.63;8.15;;;20.30;57.00;;;;;;5024481;28;20210;-31
2023/10/12 03:26:27;;;;;;;12.18;9.02;;;20.30;57.10;;;;;;5014389;28;20234;-30
2023/10/12 03:29:32;;;;;;;14.85;8.95;;;20.30;57.10;;;;;;5010388;28;20252;-31
2023/10/12 03:31:56;;;;;;;16.60;9.45;;;20.20;57.10;;;;;;5009715;28;20264;-31
2023/10/12 03:34:53;;;;;;;15.45;9.18;;;20.20;57.10;;;;;;5008771;28;20243;-31
2023/10/12 03:37:45;;;;;;;12.88;8.55;;;20.20;57.20;;;;;;5009685;28;20927;-31
2023/10/12 03:42:58;;;;;;;16.05;9.95;;;20.20;57.30;;;;;;5015921;28;20325;-31
2023/10/12 03:45:33;;;;;;;12.95;8.90;;;20.20;57.40;;;;;;5029863;28;20217;-30
2023/10/12 03:48:13;;;;;;;15.82;7.70;;;20.10;57.40;;;;;;5009334;28;20317;-30
2023/10/12 03:50:58;;;;;;;10.88;8.45;;;20.10;57.40;;;;;;5007250;28;20683;-31
2023/10/12 03:53:37;;;;;;;13.90;9.23;;;20.10;57.50;;;;;;5007849;28;20197;-31
2023/10/12 03:56:09;;;;;;;14.30;9.15;;;20.00;57.50;;;;;;5007468;28;20308;-31
2023/10/12 03:58:39;;;;;;;14.85;8.70;;;20.00;57.50;;;;;;5008074;28;20624;-31
2023/10/12 04:04:08;;;;;;;17.27;9.60;;;20.00;57.60;;;;;;5028076;28;20655;-31
2023/10/12 04:09:31;;;;;;;13.40;9.25;;;19.90;57.60;;;;;;5029480;28;20201;-32
2023/10/12 04:14:47;;;;;;;12.30;8.35;;;19.90;57.70;;;;;;5009779;28;20213;-32
2023/10/12 04:17:39;;;;;;;15.55;8.82;;;19.90;57.80;;;;;;5017069;28;20205;-31
2023/10/12 04:20:15;;;;;;;10.68;8.05;;;19.80;57.90;;;;;;5029265;28;20211;-31
2023/10/12 04:27:58;;;;;;;16.88;9.65;;;19.80;58.10;;;;;;5026267;28;20643;-32
2023/10/12 04:30:42;;;;;;;13.63;9.15;;;19.80;58.10;;;;;;5018125;28;20477;-31
2023/10/12 04:43:53;;;;;;;16.27;9.80;;;19.70;58.20;;;;;;5008777;28;20194;-31
2023/10/12 04:49:02;;;;;;;16.45;9.93;;;19.60;58.30;;;;;;5008530;28;20213;-31
2023/10/12 04:51:30;;;;;;;14.13;8.43;;;19.60;58.30;;;;;;5018133;28;20197;-31
2023/10/12 04:54:16;;;;;;;18.75;10.15;;;19.60;58.40;;;;;;5027095;28;20213;-32
2023/10/12 04:59:51;;;;;;;16.13;10.10;;;19.60;58.50;;;;;;5020343;28;20370;-31
2023/10/12 05:09:52;;;;;;;13.80;9.90;;;19.50;58.70;;;;;;5009721;28;20938;-32
2023/10/12 05:12:25;;;;;;;17.15;9.30;;;19.50;58.70;;;;;;5006514;28;20202;-32
2023/10/12 05:14:55;;;;;;;12.32;8.45;;;19.50;58.70;;;;;;5026659;28;20205;-32
2023/10/12 05:17:25;;;;;;;16.75;9.70;;;19.50;58.70;;;;;;5019688;28;20255;-32
2023/10/12 05:19:52;;;;;;;15.05;9.73;;;19.50;58.70;;;;;;5006520;28;20209;-32
2023/10/12 05:22:23;;;;;;;15.38;9.57;;;19.50;58.70;;;;;;5007819;28;20241;-31
2023/10/12 05:24:54;;;;;;;13.13;9.32;;;19.50;58.80;;;;;;5012604;28;20221;-32
2023/10/12 05:27:24;;;;;;;18.48;8.95;;;19.40;58.80;;;;;;5021570;28;20232;-31
2023/10/12 05:30:05;;;;;;;16.23;9.20;;;19.40;58.80;;;;;;5001076;28;20217;-32
2023/10/12 05:32:43;;;;;;;14.02;9.00;;;19.40;58.90;;;;;;5009032;28;20224;-32
2023/10/12 05:35:15;;;;;;;13.20;9.18;;;19.40;58.90;;;;;;5005891;28;20667;-31
2023/10/12 05:37:48;;;;;;;16.65;9.20;;;19.40;58.90;;;;;;5007564;28;20368;-31
2023/10/12 05:40:20;;;;;;;16.60;9.10;;;19.40;59.00;;;;;;5006872;28;20320;-31
2023/10/12 05:42:52;;;;;;;25.20;9.45;;;19.30;59.10;;;;;;5009850;28;20201;-31
2023/10/12 05:45:31;;;;;;;16.63;9.85;;;19.30;59.00;;;;;;5021549;28;20296;-31
2023/10/12 05:47:58;;;;;;;12.02;7.57;;;19.30;59.00;;;;;;5008248;28;20280;-31
2023/10/12 05:50:30;;;;;;;17.23;9.30;;;19.30;59.10;;;;;;5021580;28;20604;-31
2023/10/12 05:53:00;;;;;;;17.98;8.18;;;19.30;59.10;;;;;;5007743;28;20300;-31
2023/10/12 05:55:33;;;;;;;18.35;9.07;;;19.30;59.10;;;;;;5011596;28;20584;-31
2023/10/12 05:58:19;;;;;;;14.90;9.30;;;19.30;59.20;;;;;;5007135;28;20217;-31
2023/10/12 06:00:52;;;;;;;20.00;9.45;;;19.20;59.20;;;;;;5007701;28;20206;-31
2023/10/12 06:03:26;;;;;;;13.55;9.00;;;19.20;59.20;;;;;;5005642;28;20209;-31
2023/10/12 06:05:53;;;;;;;14.45;9.13;;;19.20;59.30;;;;;;5018770;28;20695;-31
2023/10/12 06:08:24;;;;;;;18.45;9.18;;;19.20;59.30;;;;;;5013754;28;20688;-31
2023/10/12 06:10:54;;;;;;;16.00;8.38;;;19.20;59.30;;;;;;5003321;28;20197;-31
2023/10/12 06:13:32;;;;;;;15.38;9.48;;;19.20;59.10;;;;;;5005209;28;20240;-31
2023/10/12 06:15:59;;;;;;;16.52;8.65;;;19.20;59.40;;;;;;5014234;28;20280;-31
2023/10/12 06:18:30;;;;;;;13.88;8.23;;;19.20;59.30;;;;;;5018467;28;20221;-31
2023/10/12 06:21:06;;;;;;;13.52;8.18;;;19.10;59.40;;;;;;5011100;28;20219;-31
2023/10/12 06:23:39;;;;;;;16.52;7.93;;;19.10;59.50;;;;;;5023669;28;20209;-32
2023/10/12 06:26:22;;;;;;;15.02;8.30;;;19.10;59.40;;;;;;5013323;28;20602;-31
2023/10/12 06:28:49;;;;;;;13.50;7.90;;;19.10;59.50;;;;;;5019994;28;20252;-31
2023/10/12 06:31:21;;;;;;;18.25;7.95;;;19.10;59.50;;;;;;5004333;28;20217;-31
2023/10/12 06:33:49;;;;;;;14.38;7.70;;;19.10;59.50;;;;;;5006711;28;20202;-32
2023/10/12 06:36:16;;;;;;;17.23;7.97;;;19.10;59.50;;;;;;5029751;28;20687;-32
2023/10/12 06:44:13;;;;;;;14.13;8.00;;;19.00;59.60;;;;;;5018067;28;21664;-29
2023/10/12 06:46:46;;;;;;;20.77;8.93;;;19.00;59.70;;;;;;5014481;28;20847;-29
2023/10/12 06:49:24;;;;;;;14.30;7.82;;;19.00;59.70;;;;;;5008092;28;20205;-29
2023/10/12 06:52:00;;;;;;;12.80;7.75;;;18.90;59.70;;;;;;5013576;28;20335;-29
2023/10/12 06:54:39;;;;;;;13.63;7.65;;;19.00;59.80;;;;;;5012879;28;20256;-29
2023/10/12 07:02:34;;;;;;;13.38;7.65;;;19.00;59.90;;;;;;5012155;28;20620;-29
2023/10/12 07:05:05;;;;;;;19.10;7.70;;;18.90;59.90;;;;;;5024051;28;20593;-29
2023/10/12 07:07:42;;;;;;;13.00;7.60;;;19.00;59.90;;;;;;5012194;28;20257;-29
2023/10/12 07:10:17;;;;;;;18.17;8.02;;;18.90;59.90;;;;;;5005745;28;20228;-29
2023/10/12 07:12:49;;;;;;;10.73;7.20;;;18.90;60.00;;;;;;5008439;28;20704;-29
2023/10/12 07:15:22;;;;;;;11.65;7.25;;;18.90;60.00;;;;;;5003333;28;20194;-29
2023/10/12 07:17:50;;;;;;;13.18;7.55;;;18.90;60.10;;;;;;5004391;28;20290;-29
2023/10/12 07:20:40;;;;;;;15.50;7.70;;;18.90;60.10;;;;;;5003073;28;20206;-31
2023/10/12 07:23:14;;;;;;;16.95;7.45;;;18.90;60.10;;;;;;5018006;28;20732;-32
2023/10/12 07:25:48;;;;;;;15.60;6.93;;;18.90;60.10;;;;;;5027783;28;20197;-31
2023/10/12 07:28:25;;;;;;;13.23;7.18;;;18.90;60.20;;;;;;5024426;28;20224;-33
2023/10/12 07:31:55;;;;;;;14.63;7.80;;;18.90;60.20;;;;;;5005483;28;20213;-31
2023/10/12 07:39:54;;;;;;;12.30;7.60;;;18.90;60.30;;;;;;5008032;28;20213;-32
2023/10/12 07:42:01;;;;;;;12.55;7.78;;;18.90;60.40;;;;;;5009485;28;20267;-31
2023/10/12 07:44:38;;;;;;;16.33;7.30;;;18.90;60.50;;;;;;5020343;28;20297;-31
2023/10/12 07:47:14;;;;;;;15.60;7.72;;;18.90;60.50;;;;;;5020379;28;20209;-33
2023/10/12 07:49:48;;;;;;;15.50;7.63;;;19.00;60.60;;;;;;5009388;28;20750;-32
2023/10/12 07:57:22;;;;;;;10.88;7.03;;;19.00;60.70;;;;;;5015591;28;20221;-32
2023/10/12 08:05:34;;;;;;;14.40;7.57;;;19.00;60.80;;;;;;5011438;28;20237;-31
2023/10/12 08:13:26;;;;;;;12.02;6.95;;;19.10;61.00;;;;;;5025242;28;20217;-29
2023/10/12 08:15:59;;;;;;;11.93;7.50;;;19.10;61.20;;;;;;5016308;28;20197;-29
2023/10/12 08:21:32;;;;;;;16.08;7.70;;;19.20;61.20;;;;;;5008167;28;20208;-29
2023/10/12 08:24:09;;;;;;;17.70;7.90;;;19.20;61.30;;;;;;5008292;28;20231;-29
2023/10/12 08:29:17;;;;;;;10.52;6.97;;;19.30;61.30;;;;;;5009105;28;20715;-30
2023/10/12 08:32:04;;;;;;;17.60;7.93;;;19.30;61.30;;;;;;5014414;28;20214;-31
2023/10/12 08:39:50;;;;;;;22.67;8.15;;;19.40;61.50;;;;;;5009776;28;20213;-31
2023/10/12 08:44:53;;;;;;;12.90;6.65;;;19.40;61.60;;;;;;5009274;28;20932;-32
2023/10/12 08:47:26;;;;;;;15.55;7.25;;;19.50;61.60;;;;;;5008772;28;20223;-32
2023/10/12 08:52:28;;;;;;;13.50;7.45;;;19.50;61.60;;;;;;5023390;28;20288;-31
2023/10/12 08:55:12;;;;;;;16.33;7.20;;;19.60;61.70;;;;;;5014262;28;20201;-29
2023/10/12 08:58:01;;;;;;;12.50;7.88;;;19.70;61.80;;;;;;5006411;28;20240;-31
2023/10/12 09:03:04;;;;;;;17.30;7.43;;;19.70;61.80;;;;;;5009597;28;20244;-31
2023/10/12 09:05:33;;;;;;;13.80;8.00;;;19.70;61.80;;;;;;5009307;28;20250;-31
2023/10/12 09:13:30;;;;;;;17.77;7.70;;;19.80;61.90;;;;;;5017446;28;20200;-31
2023/10/12 09:15:59;;;;;;;16.52;6.78;;;19.90;61.90;;;;;;5023443;28;20213;-32
2023/10/12 09:18:29;;;;;;;15.38;7.32;;;19.90;61.80;;;;;;5025053;28;20196;-31
2023/10/12 09:23:58;;;;;;;16.27;7.40;;;19.90;61.80;;;;;;5025617;28;20208;-29
2023/10/12 09:26:32;;;;;;;18.02;8.25;;;19.90;61.80;;;;;;5012986;28;20285;-29
2023/10/12 09:29:20;;;;;;;16.73;7.55;;;20.00;61.90;;;;;;5021832;28;20221;-30
2023/10/12 09:35:39;;;;;;;14.35;7.15;;;20.00;61.90;;;;;;5007998;28;20213;-29
2023/10/12 09:37:51;;;;;;;14.63;6.68;;;20.00;61.70;;;;;;5007990;28;20220;-29
2023/10/12 09:40:29;;;;;;;16.58;6.90;;;20.00;61.90;;;;;;5006522;28;20209;-29
2023/10/12 09:43:25;;;;;;;15.00;7.55;;;20.00;61.90;;;;;;5013857;28;20236;-29
2023/10/12 09:45:55;;;;;;;14.38;7.72;;;20.00;61.90;;;;;;5007256;28;20287;-29
2023/10/12 09:48:29;;;;;;;18.33;7.45;;;20.00;62.00;;;;;;5040923;28;20224;-29
2023/10/12 09:50:59;;;;;;;15.50;7.10;;;20.00;62.10;;;;;;4992767;28;20679;-30
2023/10/12 09:53:35;;;;;;;15.43;7.30;;;20.00;62.10;;;;;;5003591;28;20213;-29
2023/10/12 09:56:16;;;;;;;17.48;7.50;;;20.00;62.00;;;;;;5010617;28;20205;-29
2023/10/12 09:59:07;;;;;;;15.07;7.60;;;20.00;62.20;;;;;;5016343;28;20216;-29
2023/10/12 10:07:04;;;;;;;18.50;7.88;;;20.00;62.20;;;;;;5024797;28;20207;-29
2023/10/12 10:12:08;;;;;;;12.77;6.85;;;20.00;62.20;;;;;;5006982;28;20209;-29
2023/10/12 10:14:37;;;;;;;19.52;7.53;;;20.00;62.20;;;;;;5010894;28;20911;-29
2023/10/12 10:17:10;;;;;;;12.75;7.15;;;20.00;62.50;;;;;;5026798;28;20291;-30
2023/10/12 10:19:38;;;;;;;14.55;7.15;;;20.10;62.40;;;;;;5021260;28;20225;-29
2023/10/12 10:22:05;;;;;;;12.27;6.53;;;20.10;62.40;;;;;;5022880;28;20645;-29
2023/10/12 10:24:45;;;;;;;13.18;7.65;;;20.10;62.30;;;;;;5016935;28;20211;-29
2023/10/12 10:27:17;;;;;;;17.48;7.40;;;20.10;62.70;;;;;;5008711;28;20211;-29
2023/10/12 10:29:55;;;;;;;13.98;7.07;;;20.10;62.40;;;;;;5020019;28;20582;-29
2023/10/12 10:32:29;;;;;;;17.60;7.55;;;20.20;62.50;;;;;;5011006;28;20209;-30
2023/10/12 10:35:08;;;;;;;13.43;7.40;;;20.20;62.50;;;;;;5006044;28;20207;-29
2023/10/12 10:37:58;;;;;;;15.38;7.68;;;20.20;62.60;;;;;;5026277;28;20238;-30
2023/10/12 10:40:45;;;;;;;14.93;8.38;;;20.30;62.70;;;;;;5009844;28;20296;-29
2023/10/12 10:43:14;;;;;;;15.32;8.00;;;20.30;62.70;;;;;;5009430;28;20197;-29
2023/10/12 10:45:53;;;;;;;10.70;6.88;;;20.30;62.70;;;;;;5005920;28;20236;-29
2023/10/12 10:48:23;;;;;;;11.88;6.78;;;20.30;62.70;;;;;;5013228;28;20224;-29
2023/10/12 10:51:18;;;;;;;13.15;7.00;;;20.40;62.90;;;;;;5011317;28;20201;-30
2023/10/12 10:53:56;;;;;;;13.65;6.97;;;20.40;63.00;;;;;;5015368;28;20208;-29
2023/10/12 10:56:35;;;;;;;9.68;6.20;;;20.40;62.90;;;;;;5005523;28;20202;-29
2023/10/12 10:59:07;;;;;;;14.93;7.10;;;20.40;62.90;;;;;;5014681;28;20275;-29
2023/10/12 11:01:41;;;;;;;12.65;6.45;;;20.50;63.00;;;;;;5019706;28;20232;-29
2023/10/12 11:04:09;;;;;;;11.85;6.88;;;20.50;63.10;;;;;;5017496;28;20249;-29
2023/10/12 11:06:37;;;;;;;16.15;7.20;;;20.60;63.10;;;;;;5028304;28;20260;-30
2023/10/12 11:09:09;;;;;;;12.00;6.63;;;20.60;63.10;;;;;;5014084;28;20232;-29
2023/10/12 11:11:44;;;;;;;15.98;6.45;;;20.60;62.90;;;;;;5017182;28;20213;-29
2023/10/12 11:14:17;;;;;;;16.02;7.13;;;20.60;63.10;;;;;;5007564;28;20212;-29
2023/10/12 11:16:46;;;;;;;11.00;5.72;;;20.70;63.30;;;;;;5026646;28;20243;-29
2023/10/12 11:19:18;;;;;;;10.90;6.20;;;20.70;63.10;;;;;;5026206;28;20618;-29
2023/10/12 11:21:46;;;;;;;15.15;6.72;;;20.70;63.10;;;;;;5027091;28;20220;-29
2023/10/12 11:24:14;;;;;;;14.95;6.38;;;20.80;63.20;;;;;;5023714;28;20198;-29
2023/10/12 11:26:55;;;;;;;11.93;6.05;;;20.80;63.20;;;;;;5035260;28;20543;-29
2023/10/12 11:29:25;;;;;;;13.27;6.47;;;20.80;63.30;;;;;;5018670;28;20225;-29
2023/10/12 11:32:09;;;;;;;13.40;6.45;;;20.90;63.20;;;;;;5010718;28;20225;-30
2023/10/12 11:34:56;;;;;;;10.10;6.07;;;20.90;63.30;;;;;;5026317;28;20239;-29
2023/10/12 11:37:26;;;;;;;9.85;6.30;;;20.90;63.10;;;;;;5018812;28;20938;-29
2023/10/12 11:39:59;;;;;;;12.60;6.25;;;20.90;63.30;;;;;;5021157;28;20225;-29
2023/10/12 11:42:29;;;;;;;12.88;6.22;;;20.90;63.20;;;;;;5021046;28;20209;-29
2023/10/12 11:45:06;;;;;;;13.15;6.43;;;21.00;63.30;;;;;;5016086;28;20296;-29
2023/10/12 11:47:42;;;;;;;9.63;5.40;;;21.00;63.30;;;;;;5008831;28;20296;-29
2023/10/12 11:50:14;;;;;;;9.25;5.65;;;21.00;63.20;;;;;;5015002;28;20703;-29
2023/10/12 11:52:49;;;;;;;8.80;5.38;;;21.10;63.20;;;;;;5010642;28;20296;-29
2023/10/12 11:55:20;;;;;;;10.20;5.63;;;21.10;63.10;;;;;;5025865;28;20331;-29
2023/10/12 11:57:54;;;;;;;13.05;5.30;;;21.10;62.90;;;;;;5008977;28;20209;-29
2023/10/12 12:00:36;;;;;;;10.55;5.15;;;21.00;62.80;;;;;;5009981;28;20201;-29
2023/10/12 12:03:08;;;;;;;11.25;5.95;;;21.10;62.80;;;;;;5005711;28;20240;-29
2023/10/12 12:05:39;;;;;;;12.70;6.15;;;21.00;62.80;;;;;;5012304;28;20271;-29
2023/10/12 12:08:18;;;;;;;11.50;5.63;;;21.00;63.00;;;;;;5022753;28;20196;-30
2023/10/12 12:13:21;;;;;;;15.07;5.70;;;21.00;62.90;;;;;;5017736;28;20214;-29
2023/10/12 12:15:55;;;;;;;10.80;5.95;;;21.00;62.80;;;;;;5009207;28;20722;-29
2023/10/12 12:18:27;;;;;;;11.98;6.65;;;21.00;62.90;;;;;;5018951;28;20192;-29
2023/10/12 12:21:02;;;;;;;12.07;6.10;;;20.90;62.80;;;;;;5011004;28;20311;-29
2023/10/12 12:23:35;;;;;;;13.40;6.57;;;20.90;62.80;;;;;;5012139;28;20200;-29
2023/10/12 12:26:14;;;;;;;12.13;6.45;;;20.90;63.00;;;;;;5037738;28;20321;-29
2023/10/12 12:28:44;;;;;;;11.48;6.05;;;20.90;62.90;;;;;;5030799;28;20233;-29
2023/10/12 12:31:14;;;;;;;9.60;6.43;;;20.90;63.00;;;;;;5009357;28;20260;-30
2023/10/12 12:33:45;;;;;;;11.05;6.40;;;20.90;63.10;;;;;;5021591;28;20205;-29
2023/10/12 12:36:21;;;;;;;10.75;5.82;;;20.90;63.10;;;;;;5021171;28;20699;-30
2023/10/12 12:38:57;;;;;;;9.95;6.30;;;20.90;63.00;;;;;;5011057;28;20774;-29
2023/10/12 12:41:24;;;;;;;9.05;6.18;;;20.90;63.20;;;;;;5016091;28;20243;-29
2023/10/12 12:43:58;;;;;;;13.07;6.93;;;20.90;63.20;;;;;;5010123;28;20205;-29
2023/10/12 12:46:29;;;;;;;14.18;6.60;;;20.90;63.30;;;;;;5023524;28;20301;-29
2023/10/12 12:48:59;;;;;;;13.38;6.78;;;20.90;63.30;;;;;;5009832;28;20221;-29
2023/10/12 12:51:29;;;;;;;12.43;6.28;;;20.90;63.40;;;;;;5010369;28;20208;-29
2023/10/12 12:54:02;;;;;;;12.50;6.95;;;20.90;63.40;;;;;;5009072;28;20202;-29
2023/10/12 12:56:29;;;;;;;13.43;7.30;;;20.90;63.30;;;;;;5006413;28;20208;-29
2023/10/12 12:59:03;;;;;;;15.75;7.32;;;20.80;63.40;;;;;;5011734;28;20807;-30
2023/10/12 13:01:38;;;;;;;13.07;7.90;;;20.80;63.40;;;;;;5015906;28;20263;-29
2023/10/12 13:04:08;;;;;;;15.45;7.18;;;20.80;63.40;;;;;;5008974;28;20693;-29
2023/10/12 13:06:38;;;;;;;19.00;8.00;;;20.80;63.40;;;;;;5008322;28;20202;-29
2023/10/12 13:09:28;;;;;;;14.82;7.65;;;20.80;63.50;;;;;;5022336;28;20224;-31
2023/10/12 13:11:56;;;;;;;15.32;7.72;;;20.80;63.50;;;;;;5020140;28;20201;-31
2023/10/12 13:14:24;;;;;;;12.05;7.15;;;20.70;63.50;;;;;;5009597;28;20229;-31
2023/10/12 13:16:52;;;;;;;12.13;7.45;;;20.70;63.60;;;;;;5016968;28;20289;-31
2023/10/12 13:19:22;;;;;;;13.10;6.72;;;20.70;63.70;;;;;;5009336;28;20227;-31
2023/10/12 13:21:54;;;;;;;12.30;7.50;;;20.70;63.70;;;;;;5007827;28;20212;-30
2023/10/12 13:24:24;;;;;;;14.27;8.43;;;20.70;63.80;;;;;;5008793;28;21164;-31
2023/10/12 13:26:53;;;;;;;13.77;8.23;;;20.70;63.90;;;;;;5008368;28;20197;-31
2023/10/12 13:29:20;;;;;;;18.55;8.10;;;20.70;63.90;;;;;;5025179;28;20221;-31
2023/10/12 13:31:47;;;;;;;14.63;8.32;;;20.70;63.90;;;;;;5014193;28;20201;-31
2023/10/12 13:34:17;;;;;;;14.35;9.00;;;20.70;64.00;;;;;;5021495;28;20205;-31
2023/10/12 13:36:45;;;;;;;15.57;8.07;;;20.70;64.20;;;;;;4989931;28;20221;-31
2023/10/12 13:39:15;;;;;;;11.93;7.53;;;20.70;64.20;;;;;;5018523;28;20193;-31
2023/10/12 13:41:42;;;;;;;11.68;8.15;;;20.70;64.20;;;;;;5008718;28;20615;-31
2023/10/12 13:44:19;;;;;;;13.48;8.13;;;20.70;64.10;;;;;;5015711;28;20223;-28
2023/10/12 13:46:46;;;;;;;12.30;8.25;;;20.70;64.30;;;;;;5008655;28;20193;-31
2023/10/12 13:49:14;;;;;;;13.65;8.32;;;20.70;64.20;;;;;;5009002;28;20214;-31
2023/10/12 13:51:47;;;;;;;14.88;8.82;;;20.60;64.10;;;;;;5036762;28;20703;-31
2023/10/12 13:54:15;;;;;;;15.40;9.18;;;20.60;64.30;;;;;;5021413;28;20204;-31
2023/10/12 13:56:48;;;;;;;15.95;8.75;;;20.60;64.30;;;;;;5005878;28;20201;-31
2023/10/12 13:59:23;;;;;;;14.55;9.18;;;20.60;65.10;;;;;;5008297;28;20267;-31
2023/10/12 14:01:51;;;;;;;15.90;9.30;;;20.60;64.40;;;;;;5008164;28;20240;-31
2023/10/12 14:04:33;;;;;;;14.68;9.02;;;20.60;64.50;;;;;;5018655;28;20571;-31
2023/10/12 14:07:05;;;;;;;14.80;9.52;;;20.50;64.30;;;;;;5006850;28;20214;-31
2023/10/12 14:09:33;;;;;;;10.77;7.80;;;20.50;64.50;;;;;;5006317;28;20580;-31
2023/10/12 14:12:00;;;;;;;15.82;8.98;;;20.50;64.50;;;;;;5025481;28;20204;-31
2023/10/12 14:14:28;;;;;;;15.25;8.95;;;20.50;64.50;;;;;;5007294;28;20221;-31
2023/10/12 14:16:58;;;;;;;10.45;7.90;;;20.40;64.50;;;;;;5014539;28;20659;-33
2023/10/12 14:19:28;;;;;;;14.70;8.13;;;20.40;64.60;;;;;;5015552;28;20209;-33
2023/10/12 14:22:00;;;;;;;14.02;8.43;;;20.40;65.10;;;;;;5021492;28;20307;-34
2023/10/12 14:24:33;;;;;;;15.25;9.27;;;20.40;64.70;;;;;;5024757;28;20208;-34
2023/10/12 14:27:06;;;;;;;13.52;8.90;;;20.40;64.60;;;;;;5021845;28;20735;-33
2023/10/12 14:29:36;;;;;;;15.75;8.88;;;20.40;64.90;;;;;;5019236;28;20232;-34
2023/10/12 14:32:03;;;;;;;14.55;9.10;;;20.40;64.80;;;;;;5021308;28;20753;-34
2023/10/12 14:34:34;;;;;;;14.05;9.00;;;20.40;64.90;;;;;;5026472;28;20201;-33
2023/10/12 14:37:01;;;;;;;16.50;9.60;;;20.40;65.00;;;;;;5025147;28;20211;-34
2023/10/12 14:39:31;;;;;;;17.25;9.40;;;20.40;65.00;;;;;;5021827;28;20457;-34
2023/10/12 14:41:58;;;;;;;14.77;8.60;;;20.40;65.20;;;;;;5008676;28;20286;-34
2023/10/12 14:44:27;;;;;;;12.60;7.88;;;20.40;65.30;;;;;;5013086;28;20205;-34
2023/10/12 14:46:54;;;;;;;17.05;10.15;;;20.40;65.20;;;;;;5018411;28;20201;-34
2023/10/12 14:49:24;;;;;;;12.82;9.07;;;20.30;65.20;;;;;;5026164;28;20228;-31
2023/10/12 14:51:54;;;;;;;14.73;9.18;;;20.40;65.30;;;;;;5025027;28;20202;-32
2023/10/12 14:54:24;;;;;;;14.00;8.65;;;20.40;65.30;;;;;;5009492;28;20205;-32
2023/10/12 14:56:53;;;;;;;17.75;9.95;;;20.40;66.40;;;;;;5022422;28;20213;-36
2023/10/12 14:59:21;;;;;;;13.82;9.15;;;20.30;65.20;;;;;;5019619;28;20209;-32
2023/10/12 15:01:51;;;;;;;13.43;8.88;;;20.30;65.20;;;;;;5009393;28;20663;-32
2023/10/12 15:04:23;;;;;;;17.58;10.10;;;20.30;65.30;;;;;;5010971;28;20705;-32
2023/10/12 15:06:51;;;;;;;12.82;9.95;;;20.40;65.30;;;;;;5009856;28;20206;-32
2023/10/12 15:09:27;;;;;;;16.90;10.68;;;20.30;65.30;;;;;;5009984;28;20233;-33
2023/10/12 15:11:54;;;;;;;17.23;10.80;;;20.30;65.40;;;;;;5011566;28;20208;-33
2023/10/12 15:14:21;;;;;;;18.77;9.95;;;20.30;65.40;;;;;;5027468;28;20221;-33
2023/10/12 15:16:49;;;;;;;17.02;9.68;;;20.30;65.40;;;;;;5018336;28;20229;-32
2023/10/12 15:19:21;;;;;;;13.98;9.57;;;20.30;65.40;;;;;;5010370;28;20604;-33
2023/10/12 15:21:49;;;;;;;17.33;11.00;;;20.30;65.60;;;;;;5011720;28;20217;-33
2023/10/12 15:24:16;;;;;;;20.95;10.85;;;20.40;65.70;;;;;;5013612;28;20217;-33
2023/10/12 15:26:43;;;;;;;18.95;10.75;;;20.40;65.60;;;;;;5013110;28;20208;-33
2023/10/12 15:29:14;;;;;;;19.05;11.30;;;20.40;65.70;;;;;;5024778;28;20291;-33
2023/10/12 15:31:43;;;;;;;22.42;11.73;;;20.40;65.70;;;;;;5012433;28;20260;-33
2023/10/12 15:34:13;;;;;;;18.52;11.45;;;20.40;65.80;;;;;;5011613;28;20668;-33
2023/10/12 15:36:44;;;;;;;19.50;11.77;;;20.40;65.90;;;;;;5014968;28;20221;-33
2023/10/12 15:39:15;;;;;;;19.92;11.32;;;20.40;65.90;;;;;;5031165;28;20291;-33
2023/10/12 15:41:48;;;;;;;21.10;12.13;;;20.40;66.70;;;;;;5016485;28;20221;-33
2023/10/12 15:44:17;;;;;;;20.95;11.32;;;20.40;66.00;;;;;;5017394;28;20585;-33
2023/10/12 15:46:44;;;;;;;15.52;12.15;;;20.40;66.00;;;;;;5021089;28;20260;-33
2023/10/12 15:49:12;;;;;;;23.50;13.85;;;20.40;66.00;;;;;;4991828;28;20636;-33
2023/10/12 15:51:39;;;;;;;18.13;12.10;;;20.40;66.00;;;;;;5007337;28;20688;-33